Flight Track Log - Related Links

Times and Time Zones

All times are in EDT time to prevent confusion due to time zone crossing. See the SWA613 flight status page for this flight to view local times or setup timezone preferences in your user account.

Time Position Orientation Groundspeed Altitude Reporting Facility
EDT Latitude Longitude Course Direction KTS MPH feet Rate Location/Type
Mon 09:05:57 AM 34.7142 -92.2303 227° Southwest 167 192 1,400  Level Memphis Center
Mon 09:06:21 AM 34.7042 -92.2433 227° Southwest 144 166 2,000 1,906 Climbing Memphis Center
Mon 09:07:22 AM 34.6881 -92.3053 252° West 230 265 4,100 2,154 Climbing Memphis Center
Mon 09:07:39 AM 34.6878 -92.3261 269° West 245 282 4,800 3,342 Climbing Memphis Center
Mon 09:08:41 AM 34.6861 -92.4100 269° West 244 281 8,500 3,242 Climbing Memphis Center
Mon 09:09:43 AM 34.6789 -92.5000 264° West 256 295 11,500 3,000 Climbing Memphis Center
Mon 09:10:45 AM 34.6686 -92.5983 263° West 286 329 14,700 2,565 Climbing Memphis Center
Mon 09:11:47 AM 34.6453 -92.7150 256° West 300 345 16,800 1,984 Climbing Memphis Center
Mon 09:12:49 AM 34.6039 -92.8261 246° West 354 407 18,800 2,129 Climbing Memphis Center
Mon 09:13:51 AM 34.5611 -92.9394 245° Southwest 365 420 21,200 2,226 Climbing Memphis Center
Mon 09:14:53 AM 34.5181 -93.0550 246° West 373 429 23,400 1,935 Climbing Memphis Center
Mon 09:15:55 AM 34.4769 -93.1736 247° West 377 434 25,200 1,645 Climbing Memphis Center
Mon 09:16:57 AM 34.4328 -93.2947 246° West 388 447 26,800 1,694 Climbing Memphis Center
Mon 09:17:59 AM 34.3775 -93.4425 246° West 397 457 28,700 1,500 Climbing Memphis Center
Mon 09:19:05 AM 34.3331 -93.5644 246° West 400 460 30,000 609 Climbing Fort Worth Center
Mon 09:20:07 AM 34.2853 -93.6950 246° West 399 459 30,000  Level Fort Worth Center
Mon 09:21:09 AM 34.2364 -93.8283 246° West 397 457 30,000  Level Fort Worth Center
Mon 09:22:11 AM 34.1794 -93.9394 238° Southwest 399 459 30,000  Level Fort Worth Center
Mon 09:23:13 AM 34.0964 -94.0272 221° Southwest 408 470 30,000  Level Fort Worth Center
Mon 09:24:15 AM 34.0261 -94.1253 229° Southwest 401 461 30,000  Level Fort Worth Center
Mon 09:25:17 AM 33.9856 -94.2450 248° West 395 455 30,000  Level Fort Worth Center
Mon 09:26:19 AM 33.9467 -94.3633 248° West 389 448 30,000  Level Fort Worth Center
Mon 09:27:21 AM 33.8975 -94.5064 248° West 387 445 30,000  Level Fort Worth Center
Mon 09:28:23 AM 33.8575 -94.6256 248° West 387 445 30,000  Level Fort Worth Center
Mon 09:29:25 AM 33.8167 -94.7436 247° West 386 444 30,000  Level Fort Worth Center
Mon 09:30:28 AM 33.7775 -94.8622 248° West 385 443 30,000  Level Fort Worth Center
Mon 09:31:30 AM 33.7375 -94.9806 248° West 388 447 30,000  Level Fort Worth Center
Mon 09:32:32 AM 33.6878 -95.1233 247° West 387 445 30,000  Level Fort Worth Center
Mon 09:33:34 AM 33.6456 -95.2428 247° West 388 447 30,000 -532 Level Fort Worth Center
Mon 09:34:36 AM 33.5994 -95.3708 247° West 387 445 28,900 -1,306 Descending Fort Worth Center
Mon 09:35:38 AM 33.5631 -95.4819 249° West 389 448 27,300 -2,274 Descending Fort Worth Center
Mon 09:36:40 AM 33.5153 -95.6233 248° West 391 450 24,200 -2,806 Descending Fort Worth Center
Mon 09:37:42 AM 33.4725 -95.7397 246° West 374 430 21,500 -2,710 Descending Fort Worth Center
Mon 09:38:44 AM 33.4306 -95.8597 247° West 364 419 18,600 -2,661 Descending Fort Worth Center
Mon 09:39:46 AM 33.3931 -95.9686 248° West 357 411 16,000 -2,516 Descending Fort Worth Center
Mon 09:40:48 AM 33.3558 -96.0747 247° West 351 404 13,400 -2,516 Descending Fort Worth Center
Mon 09:41:50 AM 33.3156 -96.1850 246° West 341 392 10,800 -1,632 Descending Fort Worth Center
Mon 09:42:53 AM 33.2825 -96.2786 247° West 305 351 10,000 -1,056 Descending Fort Worth Center
Mon 09:43:55 AM 33.2475 -96.3644 244° Southwest 271 312 8,600 -1,403 Descending Fort Worth Center
Mon 09:44:57 AM 33.2133 -96.4347 240° Southwest 247 284 7,100 -1,452 Descending Fort Worth Center
Mon 09:45:59 AM 33.1792 -96.5108 242° Southwest 245 282 5,600 -1,355 Descending Fort Worth Center
Mon 09:47:01 AM 33.1500 -96.5756 242° Southwest 225 259 4,300 -774 Descending Fort Worth Center
Mon 09:48:03 AM 33.1228 -96.6442 245° Southwest 215 247 4,000 -145 Descending Fort Worth Center
Mon 09:49:05 AM 33.0958 -96.7103 244° Southwest 219 252 4,000 -145 Level Fort Worth Center
Mon 09:50:07 AM 33.0672 -96.7806 244° Southwest 220 253 3,700 -484 Descending Fort Worth Center
Mon 09:51:09 AM 33.0425 -96.8464 246° West 220 253 3,000 -339 Descending Fort Worth Center
Mon 09:52:11 AM 33.0086 -96.9114 238° Southwest 218 251 3,000 -242 Level Fort Worth Center
Mon 09:53:13 AM 32.9683 -96.9297 201° Southwest 164 189 2,500 -480 Descending Fort Worth Center
Mon 09:54:16 AM 32.9247 -96.9267 177° South 147 169 2,000 -480 Descending Fort Worth Center
Mon 09:55:18 AM 32.8878 -96.9069 156° South 153 176 1,500 -581 Descending Fort Worth Center
Mon 09:56:20 AM 32.8583 -96.8725 135° Southeast 140 161 800 -677 Descending Fort Worth Center
Mon 09:58:00 AM 32.8471 -96.8518 166° South  Level Estimated

Login

Don't have an account? Register now (free) for customized features, flight alerts, and more!